This is the latest recevied weather packets stored in our database for station/object LKNA. If no packets are shown the sender has not sent any weather packets the latest 1 day(s).
| Time | Temp. | Humidity | Pressure | Rain* | Wind** | Luminosity | Snow |
|---|---|---|---|---|---|---|---|
| 1777977070 | 20° C | 42% | 1009 hPa | - | 5.81 m/s, 120° | - | - |
| 1777976435 | 18.89° C | 45% | - | - | 5.36 m/s, 120° | - | - |
| 1777975361 | 18.89° C | 48% | 1009 hPa | - | 4.47 m/s, 110° | - | - |
| 1777973470 | 17.78° C | 48% | 1009 hPa | - | 4.47 m/s, 100° | - | - |
| 1777972833 | 17.78° C | 48% | - | - | 5.36 m/s, 110° | - | - |
| 1777971679 | 17.22° C | 48% | 1009 hPa | - | 5.36 m/s, 110° | - | - |
| 1777969869 | 15° C | 51% | 1009 hPa | - | 4.47 m/s, 110° | - | - |
| 1777969234 | 16.11° C | 51% | - | - | 4.02 m/s, 110° | - | - |
| 1777968165 | 15° C | 51% | 1009 hPa | - | 4.02 m/s, 110° | - | - |
| 1777966270 | 15° C | 51% | 1009 hPa | - | 4.02 m/s, 110° | - | - |
| 1777965634 | 13.89° C | 50% | - | - | 4.02 m/s, 110° | - | - |
| 1777964467 | 13.89° C | 50% | 1009 hPa | - | 3.58 m/s, 110° | - | - |
| 1777962670 | 13.89° C | 50% | 1010 hPa | - | 2.68 m/s, 120° | - | - |
| 1777962035 | 13.89° C | 50% | - | - | 3.13 m/s, 130° | - | - |
| 1777960872 | 13.89° C | 47% | 1010 hPa | - | 3.13 m/s, 130° | - | - |
| 1777959070 | 12.78° C | 50% | 1009 hPa | - | 2.24 m/s, 80° | - | - |
| 1777958432 | 12.22° C | 50% | - | - | 2.24 m/s, 90° | - | - |
| 1777957265 | 12.78° C | 50% | 1009 hPa | - | 2.24 m/s, 80° | - | - |
| 1777955470 | 11.11° C | 57% | 1009 hPa | - | 3.13 m/s, 40° | - | - |
| 1777954834 | 11.11° C | 57% | - | - | 3.13 m/s, 40° | - | - |
| 1777953760 | 11.11° C | 57% | 1009 hPa | - | 2.68 m/s, 30° | - | - |
| 1777951870 | 12.22° C | 54% | 1009 hPa | - | 3.58 m/s, 60° | - | - |
* Rain since midnight (hover to see other rain measurements)
** Current wind speed in m/s (hover to see current wind gust speed)